Latest Weather Observations for Casino

IDN60801

Issued at 11:34 pm EDT Friday 6 March 2015 (issued every 30 minutes, with the page automatically refreshed every 10 minutes)

About weather observations | Map of weather stations | Latest weather observations for NSW | Other Formats
Station Details ID: 058208 Name: CASINO AIRPORT AWS Lat: -28.88 Lon: 153.06 Height: 20.9 m
Data from the previous 72 hours. | See also: Recent months at Casino
Date/Time
EDT
Temp
°C
App
Temp
°C
Dew
Point
Rel
Hum
%
Delta-T
°C
Wind Press
QNH
hPa
Press
MSL
hPa
Rain
since 9 am
mm
Dir
 
Spd
km/h
Gust
km/h
Spd
kts
Gust
kts
06/11:30pm 22.0 22.5 18.4 80 2.3 NW 13 17 7 9 1007.3 1007.2 0.0
06/11:00pm 20.4 22.2 18.2 87 1.4 WNW 6 9 3 5 1007.0 1006.9 0.0
06/10:30pm 20.8 22.6 18.2 85 1.6 NW 6 7 3 4 1006.9 1006.8 0.0
06/10:00pm 21.6 23.3 18.6 83 1.9 NNW 7 9 4 5 1006.8 1006.7 0.0
06/09:30pm 21.7 23.2 18.9 84 1.8 N 9 11 5 6 1006.7 1006.6 0.0
06/09:00pm 21.2 23.0 18.4 84 1.8 E 6 7 3 4 1006.6 1006.5 0.0
06/08:30pm 21.7 24.3 18.3 81 2.1 E 2 6 1 3 1006.1 1006.0 0.0
06/08:00pm 22.7 24.5 18.7 78 2.5 ENE 7 9 4 5 1005.9 1005.8 0.0
06/07:30pm 23.7 25.0 18.4 72 3.3 ENE 9 13 5 7 1005.6 1005.5 0.0
06/07:00pm 25.8 27.2 18.7 65 4.5 ENE 9 11 5 6 1005.5 1005.4 0.0
06/06:30pm 27.1 27.7 18.7 60 5.4 NE 13 17 7 9 1004.9 1004.8 0.0
06/06:00pm 28.4 27.9 17.0 50 7.2 N 15 17 8 9 1004.8 1004.7 0.0
06/05:30pm 28.9 29.0 17.4 49 7.3 NNW 13 17 7 9 1005.0 1004.9 0.0
06/05:00pm 28.9 29.9 17.7 50 7.1 N 9 15 5 8 1005.2 1005.1 0.0
06/04:30pm 28.7 28.9 17.6 51 7.0 N 13 20 7 11 1005.3 1005.2 0.0
06/04:00pm 28.1 27.6 17.0 51 7.0 N 15 20 8 11 1005.5 1005.4 0.0
06/03:30pm 27.7 27.5 17.5 53 6.4 NNW 15 28 8 15 1005.6 1005.5 0.0
06/03:00pm 27.8 28.1 17.9 54 6.3 NNW 13 20 7 11 1006.5 1006.4 0.0
06/02:30pm 28.1 28.9 19.1 58 5.8 NNW 13 20 7 11 1007.5 1007.4 0.0
06/02:00pm 25.7 25.1 17.6 61 5.1 N 17 20 9 11 1008.0 1007.9 0.0
06/01:30pm 26.5 26.9 18.1 60 5.3 NNE 13 20 7 11 1008.9 1008.8 0.0
06/01:00pm 26.3 27.2 18.4 61 5.0 N 11 19 6 10 1009.5 1009.4 0.0
06/12:30pm 25.2 25.3 16.6 59 5.3 N 11 19 6 10 1010.1 1010.0 0.0
06/12:00pm 24.1 24.9 16.4 62 4.7 NNW 7 11 4 6 1010.5 1010.4 0.0
06/11:30am 23.0 24.0 16.3 66 4.1 E 6 9 3 5 1010.9 1010.9 0.0
06/11:00am 22.6 23.6 16.9 70 3.5 S 7 9 4 5 1011.1 1011.1 0.0
06/10:30am 22.1 22.6 16.6 71 3.3 SSW 9 11 5 6 1011.2 1011.2 0.0
06/10:00am 21.7 21.5 16.6 73 3.1 S 13 17 7 9 1011.1 1011.1 0.0
06/09:30am 21.1 21.1 16.3 74 2.9 SSW 11 15 6 8 1011.0 1011.0 0.0
06/09:00am 20.8 21.2 16.2 75 2.8 S 9 15 5 8 1010.7 1010.7 0.0
06/08:30am 20.7 20.7 16.3 76 2.7 SSW 11 15 6 8 1010.3 1010.2 0.0
06/08:00am 20.9 21.4 16.5 76 2.7 S 9 13 5 7 1010.2 1010.1 0.0
06/07:30am 20.8 21.4 16.8 78 2.4 SSW 9 13 5 7 1009.6 1009.5 0.0
06/07:00am 20.8 21.8 16.8 78 2.4 SSW 7 9 4 5 1009.2 1009.1 0.0
06/06:30am 21.0 22.6 17.0 78 2.4 S 4 7 2 4 1009.3 1009.2 0.0
06/06:00am 21.0 22.0 16.8 77 2.6 SSW 7 11 4 6 1009.1 1009.0 0.0
06/05:30am 21.1 22.3 16.9 77 2.6 SSW 6 11 3 6 1009.3 1009.2 0.0
06/05:00am 21.2 22.2 16.8 76 2.7 SSW 7 11 4 6 1009.4 1009.3 0.0
06/04:30am 21.5 22.0 16.5 73 3.0 S 9 13 5 7 1009.3 1009.2 0.0
06/04:00am 21.5 20.8 16.5 73 3.0 SSE 15 22 8 12 1009.6 1009.5 0.0
06/03:30am 21.4 22.1 17.0 76 2.7 S 9 13 5 7 1009.9 1009.8 0.0
06/03:00am 21.4 21.2 16.6 74 2.9 SSE 13 20 7 11 1010.1 1010.0 0.0
06/02:30am 22.5 22.6 16.5 69 3.7 SE 11 15 6 8 1010.2 1010.1 0.0
06/02:00am 22.7 22.9 16.7 69 3.7 SE 11 17 6 9 1010.4 1010.3 0.0
06/01:30am 22.8 22.9 16.4 67 3.9 SE 11 19 6 10 1010.5 1010.4 0.0
06/01:00am 23.2 23.4 16.7 67 4.0 SSE 11 20 6 11 1010.6 1010.5 0.0
06/12:30am 23.4 23.3 16.9 67 4.0 SSE 13 22 7 12 1010.6 1010.5 0.0
06/12:00am 23.7 23.6 17.0 66 4.1 SSE 13 24 7 13 1010.8 1010.8 0.0
 
Date/Time
EDT
Temp
°C
App
Temp
°C
Dew
Point
Rel
Hum
%
Delta-T
°C
Wind Press
QNH
hPa
Press
MSL
hPa
Rain
since 9 am
mm
Dir
 
Spd
km/h
Gust
km/h
Spd
kts
Gust
kts
05/11:30pm 23.7 22.9 17.2 67 4.0 SE 17 32 9 17 1010.8 1010.8 0.0
05/11:00pm 23.9 23.3 16.7 64 4.4 SSE 15 28 8 15 1010.6 1010.5 0.0
05/10:30pm 24.4 23.7 16.4 61 4.9 SSE 15 26 8 14 1010.7 1010.7 0.0
05/10:00pm 24.7 24.4 16.4 60 5.1 SE 13 28 7 15 1010.3 1010.2 0.0
05/09:30pm 25.0 24.3 18.2 66 4.3 SE 19 32 10 17 1009.7 1009.6 0.0
05/09:00pm 25.6 25.9 19.5 69 3.9 SE 17 24 9 13 1008.6 1008.5 0.0
05/08:30pm 26.0 26.7 19.6 68 4.1 SE 15 24 8 13 1007.8 1007.7 0.0
05/08:00pm 26.5 26.5 18.9 63 4.9 SE 17 28 9 15 1007.0 1006.9 0.0
05/07:30pm 26.9 26.4 17.9 57 5.7 SE 17 28 9 15 1006.0 1005.9 0.0
05/07:00pm 27.5 27.5 19.0 59 5.5 SE 17 24 9 13 1005.1 1005.0 0.0
05/06:30pm 29.6 27.6 18.4 51 7.2 SE 26 37 14 20 1004.3 1004.2 0.0
05/06:00pm 30.4 26.4 16.8 44 8.6 SE 33 52 18 28 1003.5 1003.4 0.0
05/05:55pm 31.0 27.3 17.0 43 8.9 SE 32 52 17 28 1003.3 1003.2 0.0
05/05:44pm 34.0 32.5 16.4 35 11.1 S 19 43 10 23 1002.8 1002.7 0.0
05/05:30pm 34.9 33.8 14.2 28 12.7 SW 13 20 7 11 1002.1 1002.0 0.0
05/05:00pm 37.7 36.7 15.5 27 14.1 WSW 15 20 8 11 1001.8 1001.7 0.0
05/04:30pm 38.0 38.0 15.2 26 14.4 WSW 9 15 5 8 1001.7 1001.6 0.0
05/04:00pm 37.9 36.1 14.5 25 14.7 W 17 26 9 14 1001.7 1001.6 0.0
05/03:30pm 38.2 36.7 15.3 25 14.5 W 17 28 9 15 1001.9 1001.8 0.0
05/03:00pm 37.0 36.9 16.0 28 13.4 W 11 20 6 11 1002.3 1002.2 0.0
05/02:30pm 36.5 36.5 17.1 31 12.5 WNW 13 20 7 11 1003.0 1002.9 0.0
05/02:00pm 36.3 36.2 17.9 33 12.0 NW 15 22 8 12 1003.5 1003.4 0.0
05/01:30pm 35.7 35.6 17.9 35 11.6 W 15 20 8 11 1004.1 1004.0 0.0
05/01:00pm 35.5 35.3 16.8 33 12.0 WNW 13 20 7 11 1004.6 1004.5 0.0
05/12:30pm 34.5 34.1 18.1 37 10.7 NNW 17 22 9 12 1004.9 1004.8 0.0
05/12:00pm 34.1 33.9 18.6 40 10.1 WNW 17 22 9 12 1005.4 1005.3 0.0
05/11:30am 33.4 32.9 18.7 41 9.6 NW 19 26 10 14 1005.8 1005.7 0.0
05/11:00am 33.0 33.0 19.8 45 8.8 NNW 19 28 10 15 1006.1 1006.0 0.0
05/10:30am 31.8 31.3 18.7 45 8.5 NW 19 28 10 15 1006.5 1006.4 0.0
05/10:00am 30.9 32.3 21.1 56 6.6 NNW 15 22 8 12 1006.6 1006.5 0.0
05/09:30am 28.9 29.6 20.4 60 5.6 NNW 17 22 9 12 1006.6 1006.5 0.0
05/09:00am 27.8 27.6 19.3 60 5.5 NNW 19 26 10 14 1006.8 1006.7 0.0
05/08:30am 27.1 26.9 19.4 62 5.0 NW 19 24 10 13 1006.9 1006.8 0.0
05/08:00am 26.3 27.6 19.4 66 4.5 NW 11 17 6 9 1006.8 1006.7 0.0
05/07:30am 24.3 25.6 19.4 74 3.1 NNW 11 17 6 9 1006.7 1006.6 0.0
05/07:00am 22.9 24.1 19.1 79 2.4 NW 11 15 6 8 1006.8 1006.7 0.0
05/06:30am 22.9 24.0 18.9 78 2.5 WNW 11 15 6 8 1006.7 1006.6 0.0
05/06:00am 23.8 24.5 18.9 74 3.1 NW 13 19 7 10 1006.3 1006.2 0.0
05/05:30am 23.7 23.6 18.8 74 3.1 NNW 17 20 9 11 1006.0 1005.9 0.0
05/05:00am 24.0 23.6 18.9 73 3.3 NNW 19 28 10 15 1006.0 1005.9 0.0
05/04:30am 23.9 23.3 18.8 73 3.2 NNW 20 26 11 14 1006.1 1006.0 0.0
05/04:00am 24.0 23.4 18.9 73 3.3 NNW 20 28 11 15 1006.4 1006.3 0.0
05/03:30am 23.8 23.5 19.1 75 3.0 NNW 19 26 10 14 1006.6 1006.5 0.0
05/03:00am 23.9 24.0 19.2 75 3.0 NNW 17 24 9 13 1007.0 1006.9 0.0
05/02:30am 22.7 24.2 19.7 83 1.9 NNW 11 19 6 10 1007.4 1007.3 0.0
05/02:00am 21.3 24.3 19.2 88 1.3 NE 2 7 1 4 1007.6 1007.5 0.0
05/01:30am 21.5 25.0 19.6 89 1.2 CALM 0 0 0 0 1008.0 1007.9 0.0
05/01:00am 21.4 24.8 19.3 88 1.3 CALM 0 0 0 0 1008.3 1008.2 0.0
05/12:30am 21.8 25.4 19.7 88 1.3 CALM 0 0 0 0 1008.7 1008.6 0.0
05/12:00am 22.0 25.6 19.7 87 1.5 CALM 0 0 0 0 1009.2 1009.1 0.0
 
Date/Time
EDT
Temp
°C
App
Temp
°C
Dew
Point
Rel
Hum
%
Delta-T
°C
Wind Press
QNH
hPa
Press
MSL
hPa
Rain
since 9 am
mm
Dir
 
Spd
km/h
Gust
km/h
Spd
kts
Gust
kts
04/11:30pm 22.2 25.4 19.7 86 1.6 SE 2 7 1 4 1009.5 1009.4 0.0
04/11:00pm 22.3 25.9 19.8 86 1.6 CALM 0 6 0 3 1009.7 1009.6 0.0
04/10:30pm 22.5 26.2 19.9 85 1.7 CALM 0 0 0 0 1009.8 1009.7 0.0
04/10:00pm 22.6 26.2 19.8 84 1.8 CALM 0 0 0 0 1010.0 1009.9 0.0
04/09:30pm 23.1 25.5 19.7 81 2.2 ESE 6 7 3 4 1010.2 1010.1 0.0
04/09:00pm 23.3 25.6 19.9 81 2.2 SE 7 9 4 5 1010.2 1010.1 0.0
04/08:30pm 23.7 25.7 20.0 80 2.4 ESE 9 11 5 6 1009.9 1009.8 0.0
04/08:00pm 24.3 25.9 20.0 77 2.8 ESE 11 13 6 7 1009.7 1009.6 0.0
04/07:30pm 25.2 26.8 20.0 73 3.4 ESE 11 13 6 7 1009.5 1009.4 0.0
04/07:00pm 26.8 27.8 19.4 64 4.8 ESE 13 17 7 9 1009.3 1009.2 0.0
04/06:30pm 28.8 29.5 19.7 58 5.9 E 15 19 8 10 1009.0 1008.9 0.0
04/06:00pm 29.8 30.9 20.4 57 6.2 E 15 20 8 11 1008.9 1008.8 0.0
04/05:30pm 30.4 31.0 20.3 54 6.7 ENE 17 24 9 13 1008.9 1008.8 0.0
04/05:00pm 31.4 32.5 19.7 49 7.7 ENE 13 17 7 9 1009.0 1008.9 0.0
04/04:30pm 32.0 32.6 18.6 45 8.7 NE 13 15 7 8 1009.2 1009.1 0.0
04/04:00pm 31.7 33.3 18.3 45 8.7 ENE 7 15 4 8 1009.7 1009.6 0.0
04/03:30pm 31.7 32.8 17.9 43 8.9 NE 9 13 5 7 1010.2 1010.1 0.0
04/03:00pm 31.4 32.7 18.4 46 8.4 NNE 9 13 5 7 1010.6 1010.5 0.0
04/02:30pm 31.1 33.1 19.1 48 7.8 NE 7 15 4 8 1011.2 1011.2 0.0
04/02:00pm 31.3 32.8 19.0 48 8.0 ENE 9 15 5 8 1011.7 1011.7 0.0
04/01:30pm 30.5 32.2 18.6 49 7.7 NNE 7 15 4 8 1012.2 1012.2 0.0
04/01:00pm 29.9 31.1 18.3 49 7.5 NNW 9 13 5 7 1012.7 1012.7 0.0
04/12:30pm 29.8 32.2 20.1 56 6.4 NNE 7 13 4 7 1013.2 1013.2 0.0
04/12:00pm 29.2 31.5 19.8 57 6.2 NNW 7 19 4 10 1013.5 1013.5 0.0
04/11:30am 28.1 29.0 18.5 56 6.1 N 11 17 6 9 1014.0 1013.9 0.0
04/11:00am 27.9 29.4 19.7 61 5.3 N 11 15 6 8 1014.4 1014.3 0.0
04/10:30am 26.5 28.1 19.1 64 4.8 WNW 9 15 5 8 1014.5 1014.4 0.0
04/10:00am 25.6 27.1 19.0 67 4.2 WNW 9 15 5 8 1014.6 1014.5 0.0
04/09:30am 24.7 26.0 19.3 72 3.5 NW 11 15 6 8 1014.7 1014.6 0.0
04/09:00am 23.9 25.6 19.4 76 2.9 NNW 9 13 5 7 1014.5 1014.4 0.0
04/08:30am 21.9 23.5 19.1 84 1.8 NNW 9 11 5 6 1014.3 1014.2 0.0
04/08:00am 20.7 22.3 19.2 91 0.9 N 9 13 5 7 1014.1 1014.0 0.0
04/07:30am 19.2 22.0 18.0 93 0.7 CALM 0 7 0 4 1014.0 1013.9 0.0
04/07:00am 18.5 21.0 17.3 93 0.7 CALM 0 0 0 0 1013.7 1013.6 0.0
04/06:30am 18.4 19.5 17.2 93 0.7 NW 7 9 4 5 1013.4 1013.4 0.0
04/06:00am 18.0 20.3 16.7 92 0.8 CALM 0 0 0 0 1012.9 1012.9 0.0
04/05:30am 17.9 19.0 16.6 92 0.8 NW 6 6 3 3 1013.0 1013.0 0.0
04/05:00am 17.8 19.8 16.1 90 1.0 CALM 0 0 0 0 1012.8 1012.8 0.0
04/04:30am 18.1 20.2 16.3 89 1.1 CALM 0 0 0 0 1012.9 1012.9 0.0
04/04:00am 18.5 19.7 16.8 90 1.0 WSW 6 7 3 4 1013.2 1013.2 0.0
04/03:30am 19.0 20.8 17.3 90 1.0 NNW 4 6 2 3 1013.4 1013.4 0.0
04/03:00am 19.1 20.7 17.8 92 0.8 WNW 6 9 3 5 1013.8 1013.7 0.0
04/02:30am 18.9 21.4 17.2 90 1.0 CALM 0 0 0 0 1014.1 1014.0 0.0
04/02:00am 19.4 22.1 17.7 90 1.0 CALM 0 0 0 0 1014.4 1014.3 0.0
04/01:30am 19.5 21.1 17.8 90 1.0 W 6 6 3 3 1015.1 1015.0 0.0
04/01:00am 19.4 22.0 17.5 89 1.2 CALM 0 6 0 3 1015.5 1015.4 0.0
04/12:30am 19.5 21.0 17.5 88 1.2 SW 6 7 3 4 1015.6 1015.5 0.0
04/12:00am 19.8 22.5 17.8 88 1.2 CALM 0 0 0 0 1015.8 1015.7 0.0

Other Formats:

Comma delimited format used in spreadsheet applications
http://www.bom.gov.au/fwo/IDN60801/IDN60801.94573.axf

JavaScript Object Notation format (JSON) in row-major order
http://www.bom.gov.au/fwo/IDN60801/IDN60801.94573.json